Terminal Aerodrome Forecast
Issued by NWS

Home | Current Version | Previous Version | Text Only | Print | Product List | Glossary On
Versions: 1 2 3 4 5 6 7 8 9 10 11 12 13 14 15 16
000
FTUS43 KMQT 250500
TAFIWD
TAF
KIWD 250522Z 2506/2606 14007G17KT 3SM -RASN SCT009 OVC025
     FM250800 23008KT 6SM -SN OVC010
     FM251100 26008KT P6SM OVC006
     FM251400 27011KT P6SM OVC010
     FM251800 30013KT P6SM OVC015
     FM260100 33010KT P6SM OVC010=

USA.gov is the U.S. government's official web portal to all federal, state and local government web resources and services.